sensor_id;sensor_type;location;lat;lon;timestamp;temperature;humidity
3268;DHT22;1646;52.450;13.326;2023-02-05T00:00:58;2.00;99.90
3268;DHT22;1646;52.450;13.326;2023-02-05T00:05:57;1.80;99.90
3268;DHT22;1646;52.450;13.326;2023-02-05T00:10:55;1.80;99.90
3268;DHT22;1646;52.450;13.326;2023-02-05T00:15:55;1.80;99.90
3268;DHT22;1646;52.450;13.326;2023-02-05T00:20:53;1.90;99.90
3268;DHT22;1646;52.450;13.326;2023-02-05T00:25:51;1.90;99.90
3268;DHT22;1646;52.450;13.326;2023-02-05T00:30:49;1.90;99.90
3268;DHT22;1646;52.450;13.326;2023-02-05T00:35:49;1.90;99.90
3268;DHT22;1646;52.450;13.326;2023-02-05T00:40:48;2.00;99.90
3268;DHT22;1646;52.450;13.326;2023-02-05T00:45:46;2.00;99.90
3268;DHT22;1646;52.450;13.326;2023-02-05T00:50:47;1.70;99.90
3268;DHT22;1646;52.450;13.326;2023-02-05T00:55:46;1.60;99.90
3268;DHT22;1646;52.450;13.326;2023-02-05T01:00:45;1.50;99.90
3268;DHT22;1646;52.450;13.326;2023-02-05T01:05:44;1.50;99.90
3268;DHT22;1646;52.450;13.326;2023-02-05T01:10:43;1.50;99.90
3268;DHT22;1646;52.450;13.326;2023-02-05T01:15:43;1.40;99.90
3268;DHT22;1646;52.450;13.326;2023-02-05T01:20:42;1.40;99.90
3268;DHT22;1646;52.450;13.326;2023-02-05T01:25:40;1.30;99.90
3268;DHT22;1646;52.450;13.326;2023-02-05T01:30:38;1.30;99.90
3268;DHT22;1646;52.450;13.326;2023-02-05T01:35:39;1.20;99.90
3268;DHT22;1646;52.450;13.326;2023-02-05T01:40:38;1.00;99.90
3268;DHT22;1646;52.450;13.326;2023-02-05T01:51:17;0.50;99.90
3268;DHT22;1646;52.450;13.326;2023-02-05T01:56:19;0.40;99.90
3268;DHT22;1646;52.450;13.326;2023-02-05T02:01:19;0.40;99.90
3268;DHT22;1646;52.450;13.326;2023-02-05T02:06:18;0.30;99.90
3268;DHT22;1646;52.450;13.326;2023-02-05T02:11:20;0.20;99.90
3268;DHT22;1646;52.450;13.326;2023-02-05T02:16:19;0.20;99.90
3268;DHT22;1646;52.450;13.326;2023-02-05T02:27:40;0.30;99.90
3268;DHT22;1646;52.450;13.326;2023-02-05T02:32:44;0.30;99.90
3268;DHT22;1646;52.450;13.326;2023-02-05T02:37:47;0.30;99.90
3268;DHT22;1646;52.450;13.326;2023-02-05T02:42:52;0.30;99.90
3268;DHT22;1646;52.450;13.326;2023-02-05T02:47:57;0.30;99.90
3268;DHT22;1646;52.450;13.326;2023-02-05T02:53:01;0.30;99.90
3268;DHT22;1646;52.450;13.326;2023-02-05T02:58:04;0.30;99.90
3268;DHT22;1646;52.450;13.326;2023-02-05T03:03:07;0.30;99.90
3268;DHT22;1646;52.450;13.326;2023-02-05T03:08:11;0.30;99.90
3268;DHT22;1646;52.450;13.326;2023-02-05T03:13:13;0.30;99.90
3268;DHT22;1646;52.450;13.326;2023-02-05T03:18:19;0.30;99.90
3268;DHT22;1646;52.450;13.326;2023-02-05T03:23:17;0.20;99.90
3268;DHT22;1646;52.450;13.326;2023-02-05T03:28:17;0.40;99.90
3268;DHT22;1646;52.450;13.326;2023-02-05T03:33:28;0.20;99.90
3268;DHT22;1646;52.450;13.326;2023-02-05T03:38:44;0.10;99.90
3268;DHT22;1646;52.450;13.326;2023-02-05T03:43:54;0.10;99.90
3268;DHT22;1646;52.450;13.326;2023-02-05T03:49:03;0.10;99.90
3268;DHT22;1646;52.450;13.326;2023-02-05T03:54:11;0.10;99.90
3268;DHT22;1646;52.450;13.326;2023-02-05T03:59:13;0.10;99.90
3268;DHT22;1646;52.450;13.326;2023-02-05T04:04:13;0.10;99.90
3268;DHT22;1646;52.450;13.326;2023-02-05T04:09:12;0.10;99.90
3268;DHT22;1646;52.450;13.326;2023-02-05T04:14:12;0.10;99.90
3268;DHT22;1646;52.450;13.326;2023-02-05T04:19:12;0.00;99.90
3268;DHT22;1646;52.450;13.326;2023-02-05T04:24:11;-0.10;99.90
3268;DHT22;1646;52.450;13.326;2023-02-05T04:29:11;-0.20;99.90
3268;DHT22;1646;52.450;13.326;2023-02-05T04:34:14;-0.10;99.90
3268;DHT22;1646;52.450;13.326;2023-02-05T04:39:13;-0.10;99.90
3268;DHT22;1646;52.450;13.326;2023-02-05T04:44:13;0.00;99.90
3268;DHT22;1646;52.450;13.326;2023-02-05T04:49:11;0.20;99.90
3268;DHT22;1646;52.450;13.326;2023-02-05T04:54:09;0.20;99.90
3268;DHT22;1646;52.450;13.326;2023-02-05T04:59:07;0.20;99.90
3268;DHT22;1646;52.450;13.326;2023-02-05T05:04:07;0.20;99.90
3268;DHT22;1646;52.450;13.326;2023-02-05T05:09:06;0.30;99.90
3268;DHT22;1646;52.450;13.326;2023-02-05T05:14:04;0.30;99.90
3268;DHT22;1646;52.450;13.326;2023-02-05T05:19:02;0.30;99.90
3268;DHT22;1646;52.450;13.326;2023-02-05T05:24:02;0.40;99.90
3268;DHT22;1646;52.450;13.326;2023-02-05T05:29:00;0.30;99.90
3268;DHT22;1646;52.450;13.326;2023-02-05T05:33:59;0.40;99.90
3268;DHT22;1646;52.450;13.326;2023-02-05T05:39:01;0.20;99.90
3268;DHT22;1646;52.450;13.326;2023-02-05T05:44:14;0.20;99.90
3268;DHT22;1646;52.450;13.326;2023-02-05T05:49:12;0.20;99.90
3268;DHT22;1646;52.450;13.326;2023-02-05T05:54:12;0.20;99.90
3268;DHT22;1646;52.450;13.326;2023-02-05T05:59:11;0.20;99.90
3268;DHT22;1646;52.450;13.326;2023-02-05T06:04:09;0.30;99.90
3268;DHT22;1646;52.450;13.326;2023-02-05T06:09:08;0.20;99.90
3268;DHT22;1646;52.450;13.326;2023-02-05T06:14:07;0.20;99.90
3268;DHT22;1646;52.450;13.326;2023-02-05T06:19:06;0.10;99.90
3268;DHT22;1646;52.450;13.326;2023-02-05T06:24:04;0.00;99.90
3268;DHT22;1646;52.450;13.326;2023-02-05T06:29:03;-0.10;99.90
3268;DHT22;1646;52.450;13.326;2023-02-05T06:34:02;-0.20;99.90
3268;DHT22;1646;52.450;13.326;2023-02-05T06:39:01;-0.20;99.90
3268;DHT22;1646;52.450;13.326;2023-02-05T06:43:59;-0.20;99.90
3268;DHT22;1646;52.450;13.326;2023-02-05T06:48:57;-0.10;99.90
3268;DHT22;1646;52.450;13.326;2023-02-05T06:53:58;0.00;99.90
3268;DHT22;1646;52.450;13.326;2023-02-05T06:58:57;-0.10;99.90
3268;DHT22;1646;52.450;13.326;2023-02-05T07:03:55;0.00;99.90
3268;DHT22;1646;52.450;13.326;2023-02-05T07:08:53;0.20;99.90
3268;DHT22;1646;52.450;13.326;2023-02-05T07:13:53;0.20;99.90
3268;DHT22;1646;52.450;13.326;2023-02-05T07:18:51;0.20;99.90
3268;DHT22;1646;52.450;13.326;2023-02-05T07:23:49;0.30;99.90
3268;DHT22;1646;52.450;13.326;2023-02-05T07:28:48;0.30;99.90
3268;DHT22;1646;52.450;13.326;2023-02-05T07:33:48;0.30;99.90
3268;DHT22;1646;52.450;13.326;2023-02-05T07:38:47;0.20;99.90
3268;DHT22;1646;52.450;13.326;2023-02-05T07:43:45;0.20;99.90
3268;DHT22;1646;52.450;13.326;2023-02-05T07:48:48;0.20;99.90
3268;DHT22;1646;52.450;13.326;2023-02-05T07:53:47;0.10;99.90
3268;DHT22;1646;52.450;13.326;2023-02-05T07:58:45;0.10;99.90
3268;DHT22;1646;52.450;13.326;2023-02-05T08:03:45;0.20;99.90
3268;DHT22;1646;52.450;13.326;2023-02-05T08:08:45;0.20;99.90
3268;DHT22;1646;52.450;13.326;2023-02-05T08:13:44;0.30;99.90
3268;DHT22;1646;52.450;13.326;2023-02-05T08:18:46;0.30;99.90
3268;DHT22;1646;52.450;13.326;2023-02-05T08:23:46;0.30;99.90
3268;DHT22;1646;52.450;13.326;2023-02-05T08:28:45;0.10;99.90
3268;DHT22;1646;52.450;13.326;2023-02-05T08:33:43;0.10;99.90
3268;DHT22;1646;52.450;13.326;2023-02-05T08:38:42;0.20;99.90
3268;DHT22;1646;52.450;13.326;2023-02-05T08:43:43;0.20;99.90
3268;DHT22;1646;52.450;13.326;2023-02-05T08:48:42;0.30;99.90
3268;DHT22;1646;52.450;13.326;2023-02-05T08:53:40;0.50;99.90
3268;DHT22;1646;52.450;13.326;2023-02-05T08:58:39;0.50;99.90
3268;DHT22;1646;52.450;13.326;2023-02-05T09:03:39;0.50;99.90
3268;DHT22;1646;52.450;13.326;2023-02-05T09:08:37;0.70;99.90
3268;DHT22;1646;52.450;13.326;2023-02-05T09:13:36;0.80;99.90
3268;DHT22;1646;52.450;13.326;2023-02-05T09:18:34;0.80;99.90
3268;DHT22;1646;52.450;13.326;2023-02-05T09:23:34;0.90;99.90
3268;DHT22;1646;52.450;13.326;2023-02-05T09:28:33;1.00;99.90
3268;DHT22;1646;52.450;13.326;2023-02-05T09:33:31;1.10;99.90
3268;DHT22;1646;52.450;13.326;2023-02-05T09:38:29;1.20;99.90
3268;DHT22;1646;52.450;13.326;2023-02-05T09:43:40;1.30;99.90
3268;DHT22;1646;52.450;13.326;2023-02-05T09:48:49;1.30;99.90
3268;DHT22;1646;52.450;13.326;2023-02-05T09:53:55;1.40;99.90
3268;DHT22;1646;52.450;13.326;2023-02-05T09:58:57;1.60;99.90
3268;DHT22;1646;52.450;13.326;2023-02-05T10:03:58;1.50;99.90
3268;DHT22;1646;52.450;13.326;2023-02-05T10:09:07;1.50;99.90
3268;DHT22;1646;52.450;13.326;2023-02-05T10:14:17;1.70;99.90
3268;DHT22;1646;52.450;13.326;2023-02-05T10:19:36;1.70;99.90
3268;DHT22;1646;52.450;13.326;2023-02-05T10:24:49;2.00;99.90
3268;DHT22;1646;52.450;13.326;2023-02-05T10:29:59;2.00;99.90
3268;DHT22;1646;52.450;13.326;2023-02-05T10:35:08;2.00;99.90
3268;DHT22;1646;52.450;13.326;2023-02-05T10:40:14;2.00;99.90
3268;DHT22;1646;52.450;13.326;2023-02-05T10:45:17;2.00;99.90
3268;DHT22;1646;52.450;13.326;2023-02-05T10:50:22;2.10;99.90
3268;DHT22;1646;52.450;13.326;2023-02-05T10:55:22;2.40;99.90
3268;DHT22;1646;52.450;13.326;2023-02-05T11:00:22;2.60;99.90
3268;DHT22;1646;52.450;13.326;2023-02-05T11:05:23;2.80;99.90
3268;DHT22;1646;52.450;13.326;2023-02-05T11:10:25;3.70;99.90
3268;DHT22;1646;52.450;13.326;2023-02-05T11:15:26;4.20;99.90
3268;DHT22;1646;52.450;13.326;2023-02-05T11:20:30;4.20;99.90
3268;DHT22;1646;52.450;13.326;2023-02-05T11:25:30;4.00;99.90
3268;DHT22;1646;52.450;13.326;2023-02-05T11:30:31;3.70;99.90
3268;DHT22;1646;52.450;13.326;2023-02-05T11:35:54;3.60;99.90
3268;DHT22;1646;52.450;13.326;2023-02-05T11:40:53;3.80;99.90
3268;DHT22;1646;52.450;13.326;2023-02-05T11:45:54;3.90;99.90
3268;DHT22;1646;52.450;13.326;2023-02-05T11:50:53;4.30;99.90
3268;DHT22;1646;52.450;13.326;2023-02-05T11:55:54;4.90;99.90
3268;DHT22;1646;52.450;13.326;2023-02-05T12:00:56;5.40;99.90
3268;DHT22;1646;52.450;13.326;2023-02-05T12:06:01;5.40;99.90
3268;DHT22;1646;52.450;13.326;2023-02-05T12:11:14;5.50;99.90
3268;DHT22;1646;52.450;13.326;2023-02-05T12:16:21;5.60;99.90
3268;DHT22;1646;52.450;13.326;2023-02-05T12:21:27;5.60;99.90
3268;DHT22;1646;52.450;13.326;2023-02-05T12:26:31;5.50;99.90
3268;DHT22;1646;52.450;13.326;2023-02-05T12:31:39;5.30;99.90
3268;DHT22;1646;52.450;13.326;2023-02-05T12:36:50;5.60;99.90
3268;DHT22;1646;52.450;13.326;2023-02-05T12:41:57;5.40;99.90
3268;DHT22;1646;52.450;13.326;2023-02-05T12:47:08;5.10;99.90
3268;DHT22;1646;52.450;13.326;2023-02-05T12:52:20;4.60;99.90
3268;DHT22;1646;52.450;13.326;2023-02-05T12:57:24;4.20;99.90
3268;DHT22;1646;52.450;13.326;2023-02-05T13:02:30;4.00;99.90
3268;DHT22;1646;52.450;13.326;2023-02-05T13:07:33;4.30;99.90
3268;DHT22;1646;52.450;13.326;2023-02-05T13:12:35;4.60;99.90
3268;DHT22;1646;52.450;13.326;2023-02-05T13:17:39;4.30;99.90
3268;DHT22;1646;52.450;13.326;2023-02-05T13:22:51;4.30;99.90
3268;DHT22;1646;52.450;13.326;2023-02-05T13:28:23;4.20;99.90
3268;DHT22;1646;52.450;13.326;2023-02-05T13:33:39;4.00;99.90
3268;DHT22;1646;52.450;13.326;2023-02-05T13:38:51;3.80;99.90
3268;DHT22;1646;52.450;13.326;2023-02-05T13:49:49;3.80;99.90
3268;DHT22;1646;52.450;13.326;2023-02-05T14:00:43;3.60;99.90
3268;DHT22;1646;52.450;13.326;2023-02-05T14:05:42;3.60;99.90
3268;DHT22;1646;52.450;13.326;2023-02-05T14:10:43;3.70;99.90
3268;DHT22;1646;52.450;13.326;2023-02-05T14:15:44;3.70;99.90
3268;DHT22;1646;52.450;13.326;2023-02-05T14:20:44;3.70;99.90
3268;DHT22;1646;52.450;13.326;2023-02-05T14:31:00;3.90;99.90
3268;DHT22;1646;52.450;13.326;2023-02-05T14:36:31;4.00;99.90
3268;DHT22;1646;52.450;13.326;2023-02-05T14:41:45;4.00;99.90
3268;DHT22;1646;52.450;13.326;2023-02-05T14:46:58;3.70;99.90
3268;DHT22;1646;52.450;13.326;2023-02-05T14:52:01;3.80;99.90
3268;DHT22;1646;52.450;13.326;2023-02-05T14:57:11;3.70;99.90
3268;DHT22;1646;52.450;13.326;2023-02-05T15:02:45;3.40;99.90
3268;DHT22;1646;52.450;13.326;2023-02-05T15:07:48;3.10;99.90
3268;DHT22;1646;52.450;13.326;2023-02-05T15:13:00;2.90;99.90
3268;DHT22;1646;52.450;13.326;2023-02-05T15:18:04;2.80;99.90
3268;DHT22;1646;52.450;13.326;2023-02-05T15:23:15;2.90;99.90
3268;DHT22;1646;52.450;13.326;2023-02-05T15:28:22;2.90;99.90
3268;DHT22;1646;52.450;13.326;2023-02-05T15:33:29;3.10;99.90
3268;DHT22;1646;52.450;13.326;2023-02-05T15:38:34;2.90;99.90
3268;DHT22;1646;52.450;13.326;2023-02-05T15:43:36;2.80;99.90
3268;DHT22;1646;52.450;13.326;2023-02-05T15:48:35;2.80;99.90
3268;DHT22;1646;52.450;13.326;2023-02-05T15:53:39;2.70;99.90
3268;DHT22;1646;52.450;13.326;2023-02-05T15:58:39;2.70;99.90
3268;DHT22;1646;52.450;13.326;2023-02-05T16:03:39;2.70;99.90
3268;DHT22;1646;52.450;13.326;2023-02-05T16:08:44;2.60;99.90
3268;DHT22;1646;52.450;13.326;2023-02-05T16:13:43;2.60;99.90
3268;DHT22;1646;52.450;13.326;2023-02-05T16:18:45;2.70;99.90
3268;DHT22;1646;52.450;13.326;2023-02-05T16:23:49;2.70;99.90
3268;DHT22;1646;52.450;13.326;2023-02-05T16:28:54;2.70;99.90
3268;DHT22;1646;52.450;13.326;2023-02-05T16:33:57;2.60;99.90
3268;DHT22;1646;52.450;13.326;2023-02-05T16:39:01;2.50;99.90
3268;DHT22;1646;52.450;13.326;2023-02-05T16:44:03;2.20;99.90
3268;DHT22;1646;52.450;13.326;2023-02-05T16:49:29;2.10;99.90
3268;DHT22;1646;52.450;13.326;2023-02-05T16:54:34;2.00;99.90
3268;DHT22;1646;52.450;13.326;2023-02-05T16:59:45;1.90;99.90
3268;DHT22;1646;52.450;13.326;2023-02-05T17:04:49;2.00;99.90
3268;DHT22;1646;52.450;13.326;2023-02-05T17:09:50;1.90;99.90
3268;DHT22;1646;52.450;13.326;2023-02-05T17:14:52;1.90;99.90
3268;DHT22;1646;52.450;13.326;2023-02-05T17:20:05;1.90;99.90
3268;DHT22;1646;52.450;13.326;2023-02-05T17:25:06;1.80;99.90
3268;DHT22;1646;52.450;13.326;2023-02-05T17:30:13;1.70;99.90
3268;DHT22;1646;52.450;13.326;2023-02-05T17:35:15;1.60;99.90
3268;DHT22;1646;52.450;13.326;2023-02-05T17:40:16;1.60;99.90
3268;DHT22;1646;52.450;13.326;2023-02-05T17:45:17;1.50;99.90
3268;DHT22;1646;52.450;13.326;2023-02-05T17:50:17;1.60;99.90
3268;DHT22;1646;52.450;13.326;2023-02-05T17:55:18;1.60;99.90
3268;DHT22;1646;52.450;13.326;2023-02-05T18:00:19;1.70;99.90
3268;DHT22;1646;52.450;13.326;2023-02-05T18:05:17;1.70;99.90
3268;DHT22;1646;52.450;13.326;2023-02-05T18:10:21;1.70;99.90
3268;DHT22;1646;52.450;13.326;2023-02-05T18:15:20;1.60;99.90
3268;DHT22;1646;52.450;13.326;2023-02-05T18:20:18;1.60;99.90
3268;DHT22;1646;52.450;13.326;2023-02-05T18:25:18;1.60;99.90
3268;DHT22;1646;52.450;13.326;2023-02-05T18:30:17;1.50;99.90
3268;DHT22;1646;52.450;13.326;2023-02-05T18:35:15;1.50;99.90
3268;DHT22;1646;52.450;13.326;2023-02-05T18:40:14;1.50;99.90
3268;DHT22;1646;52.450;13.326;2023-02-05T18:45:14;1.40;99.90
3268;DHT22;1646;52.450;13.326;2023-02-05T18:50:12;1.40;99.90
3268;DHT22;1646;52.450;13.326;2023-02-05T18:55:10;1.40;99.90
3268;DHT22;1646;52.450;13.326;2023-02-05T19:00:10;1.30;99.90
3268;DHT22;1646;52.450;13.326;2023-02-05T19:05:10;1.30;99.90
3268;DHT22;1646;52.450;13.326;2023-02-05T19:10:09;1.20;99.90
3268;DHT22;1646;52.450;13.326;2023-02-05T19:15:08;1.20;99.90
3268;DHT22;1646;52.450;13.326;2023-02-05T19:20:07;1.10;99.90
3268;DHT22;1646;52.450;13.326;2023-02-05T19:25:07;1.10;99.90
3268;DHT22;1646;52.450;13.326;2023-02-05T19:30:06;1.10;99.90
3268;DHT22;1646;52.450;13.326;2023-02-05T19:35:05;1.10;99.90
3268;DHT22;1646;52.450;13.326;2023-02-05T19:40:03;1.00;99.90
3268;DHT22;1646;52.450;13.326;2023-02-05T19:45:04;1.00;99.90
3268;DHT22;1646;52.450;13.326;2023-02-05T19:50:03;0.90;99.90
3268;DHT22;1646;52.450;13.326;2023-02-05T19:55:01;0.90;99.90
3268;DHT22;1646;52.450;13.326;2023-02-05T19:59:59;0.90;99.90
3268;DHT22;1646;52.450;13.326;2023-02-05T20:05:09;0.80;99.90
3268;DHT22;1646;52.450;13.326;2023-02-05T20:10:07;0.80;99.90
3268;DHT22;1646;52.450;13.326;2023-02-05T20:15:07;0.70;99.90
3268;DHT22;1646;52.450;13.326;2023-02-05T20:20:06;0.70;99.90
3268;DHT22;1646;52.450;13.326;2023-02-05T20:25:17;0.70;99.90
3268;DHT22;1646;52.450;13.326;2023-02-05T20:30:15;0.70;99.90
3268;DHT22;1646;52.450;13.326;2023-02-05T20:35:34;0.60;99.90
3268;DHT22;1646;52.450;13.326;2023-02-05T20:40:33;0.60;99.90
3268;DHT22;1646;52.450;13.326;2023-02-05T20:45:32;0.60;99.90
3268;DHT22;1646;52.450;13.326;2023-02-05T20:50:30;0.60;99.90
3268;DHT22;1646;52.450;13.326;2023-02-05T20:55:29;0.60;99.90
3268;DHT22;1646;52.450;13.326;2023-02-05T21:00:29;0.40;99.90
3268;DHT22;1646;52.450;13.326;2023-02-05T21:05:27;0.40;99.90
3268;DHT22;1646;52.450;13.326;2023-02-05T21:10:25;0.40;99.90
3268;DHT22;1646;52.450;13.326;2023-02-05T21:15:24;0.40;99.90
3268;DHT22;1646;52.450;13.326;2023-02-05T21:20:24;0.40;99.90
3268;DHT22;1646;52.450;13.326;2023-02-05T21:25:22;0.40;99.90
3268;DHT22;1646;52.450;13.326;2023-02-05T21:30:20;0.30;99.90
3268;DHT22;1646;52.450;13.326;2023-02-05T21:35:19;0.40;99.90
3268;DHT22;1646;52.450;13.326;2023-02-05T21:40:19;0.40;99.90
3268;DHT22;1646;52.450;13.326;2023-02-05T21:45:17;0.30;99.90
3268;DHT22;1646;52.450;13.326;2023-02-05T21:50:16;0.30;99.90
3268;DHT22;1646;52.450;13.326;2023-02-05T21:55:14;0.20;99.90
3268;DHT22;1646;52.450;13.326;2023-02-05T22:00:15;0.20;99.90
3268;DHT22;1646;52.450;13.326;2023-02-05T22:05:13;0.20;99.90
3268;DHT22;1646;52.450;13.326;2023-02-05T22:10:11;0.20;99.90
3268;DHT22;1646;52.450;13.326;2023-02-05T22:15:10;0.20;99.90
3268;DHT22;1646;52.450;13.326;2023-02-05T22:20:11;0.20;99.90
3268;DHT22;1646;52.450;13.326;2023-02-05T22:25:09;0.10;99.90
3268;DHT22;1646;52.450;13.326;2023-02-05T22:30:09;0.10;99.90
3268;DHT22;1646;52.450;13.326;2023-02-05T22:35:07;0.10;99.90
3268;DHT22;1646;52.450;13.326;2023-02-05T22:40:08;0.10;99.90
3268;DHT22;1646;52.450;13.326;2023-02-05T22:45:07;0.00;99.90
3268;DHT22;1646;52.450;13.326;2023-02-05T22:50:06;0.00;99.90
3268;DHT22;1646;52.450;13.326;2023-02-05T22:55:06;0.00;99.90
3268;DHT22;1646;52.450;13.326;2023-02-05T23:00:05;0.00;99.90
3268;DHT22;1646;52.450;13.326;2023-02-05T23:05:04;0.00;99.90
3268;DHT22;1646;52.450;13.326;2023-02-05T23:10:03;-0.10;99.90
3268;DHT22;1646;52.450;13.326;2023-02-05T23:15:04;-0.10;99.90
3268;DHT22;1646;52.450;13.326;2023-02-05T23:20:03;-0.10;99.90
3268;DHT22;1646;52.450;13.326;2023-02-05T23:25:02;-0.10;99.90
3268;DHT22;1646;52.450;13.326;2023-02-05T23:30:03;-0.10;99.90
3268;DHT22;1646;52.450;13.326;2023-02-05T23:35:02;-0.30;99.90
3268;DHT22;1646;52.450;13.326;2023-02-05T23:40:00;-0.30;99.90
3268;DHT22;1646;52.450;13.326;2023-02-05T23:44:59;-0.30;99.90
3268;DHT22;1646;52.450;13.326;2023-02-05T23:50:00;-0.20;99.90
3268;DHT22;1646;52.450;13.326;2023-02-05T23:54:58;-0.10;99.90
3268;DHT22;1646;52.450;13.326;2023-02-05T23:59:56;-0.10;99.90
